Time,TemperatureF,DewpointF,PressureIn,WindDirection,WindDirectionDegrees,WindSpeedMPH,WindSpeedGustMPH,Humidity,HourlyPrecipIn,Conditions,Clouds,dailyrainin,SoftwareType,DateUTC
2013-03-18 00:00:00,49.5,45.5,29.68,SW,218,0.0,0.0,86,0.00,,CLR,0.00,VWS V14.01,2013-03-18 07:00:00,
2013-03-18 00:10:00,49.3,45.3,29.68,SW,218,0.0,0.0,86,0.00,,CLR,0.00,VWS V14.01,2013-03-18 07:10:00,
2013-03-18 00:20:00,48.9,44.9,29.68,SW,218,0.0,0.0,86,0.00,,CLR,0.00,VWS V14.01,2013-03-18 07:20:00,
2013-03-18 00:30:00,48.9,45.2,29.68,SW,218,0.0,0.0,87,0.00,,CLR,0.00,VWS V14.01,2013-03-18 07:30:00,
2013-03-18 00:40:00,48.7,45.0,29.68,SW,218,0.0,0.0,87,0.00,,CLR,0.00,VWS V14.01,2013-03-18 07:40:00,
2013-03-18 00:50:00,48.7,45.3,29.68,SW,218,0.0,0.0,88,0.00,,CLR,0.00,VWS V14.01,2013-03-18 07:50:00,
2013-03-18 01:00:00,48.6,45.2,29.68,SW,218,0.0,0.0,88,0.00,,CLR,0.00,VWS V14.01,2013-03-18 08:00:00,
2013-03-18 01:10:00,48.6,45.2,29.68,SW,218,0.0,0.0,88,0.00,,CLR,0.00,VWS V14.01,2013-03-18 08:10:00,
2013-03-18 01:20:00,48.0,44.6,29.68,SW,218,0.0,0.0,88,0.00,,CLR,0.00,VWS V14.01,2013-03-18 08:20:00,
2013-03-18 01:30:00,48.0,44.6,29.68,SW,218,0.0,0.0,88,0.00,,CLR,0.00,VWS V14.01,2013-03-18 08:30:00,
2013-03-18 01:40:00,47.1,43.8,29.68,SW,218,0.0,0.0,88,0.00,,CLR,0.00,VWS V14.01,2013-03-18 08:40:00,
2013-03-18 01:50:00,47.1,43.8,29.68,SW,218,0.0,0.0,88,0.00,,CLR,0.00,VWS V14.01,2013-03-18 08:50:00,
2013-03-18 02:00:00,47.1,44.0,29.68,SW,218,0.0,0.0,89,0.00,,CLR,0.00,VWS V14.01,2013-03-18 09:00:00,
2013-03-18 02:10:00,46.8,43.7,29.68,SW,218,0.0,0.0,89,0.00,,CLR,0.00,VWS V14.01,2013-03-18 09:10:00,
2013-03-18 02:20:00,46.8,43.7,29.68,SW,218,0.0,0.0,89,0.00,,CLR,0.00,VWS V14.01,2013-03-18 09:20:00,
2013-03-18 02:30:00,46.2,43.5,29.68,SW,218,0.0,0.0,90,0.00,,CLR,0.00,VWS V14.01,2013-03-18 09:30:00,
2013-03-18 02:40:00,45.7,42.9,29.68,SW,218,0.0,0.0,90,0.00,,CLR,0.00,VWS V14.01,2013-03-18 09:40:00,
2013-03-18 02:50:00,45.5,42.7,29.68,SW,218,0.0,0.0,90,0.00,,CLR,0.00,VWS V14.01,2013-03-18 09:50:00,
2013-03-18 03:00:00,46.0,43.8,29.68,SW,218,0.0,0.0,92,0.00,,CLR,0.00,VWS V14.01,2013-03-18 10:00:00,
2013-03-18 03:10:00,46.0,43.8,29.68,SW,218,0.0,0.0,92,0.00,,CLR,0.00,VWS V14.01,2013-03-18 10:10:00,
2013-03-18 03:20:00,46.2,44.3,29.68,SW,218,0.0,0.0,93,0.00,,CLR,0.00,VWS V14.01,2013-03-18 10:20:00,
2013-03-18 03:30:00,46.0,44.1,29.65,SW,218,0.0,0.0,93,0.00,,CLR,0.00,VWS V14.01,2013-03-18 10:30:00,
2013-03-18 03:40:00,46.2,44.3,29.65,SW,218,0.0,0.0,93,0.00,,CLR,0.00,VWS V14.01,2013-03-18 10:40:00,
2013-03-18 03:50:00,45.7,43.8,29.65,SW,218,0.0,0.0,93,0.00,,CLR,0.00,VWS V14.01,2013-03-18 10:50:00,
2013-03-18 04:00:00,45.7,44.1,29.65,SW,218,0.0,0.0,94,0.00,,CLR,0.00,VWS V14.01,2013-03-18 11:00:00,
2013-03-18 04:10:00,45.7,44.1,29.65,SW,218,0.0,0.0,94,0.00,,CLR,0.00,VWS V14.01,2013-03-18 11:10:00,
2013-03-18 04:20:00,45.7,44.1,29.65,SW,218,0.0,0.0,94,0.00,,CLR,0.00,VWS V14.01,2013-03-18 11:20:00,
2013-03-18 04:30:00,45.5,43.9,29.65,SW,218,0.0,0.0,94,0.00,,CLR,0.00,VWS V14.01,2013-03-18 11:30:00,
2013-03-18 04:40:00,45.5,44.2,29.65,SW,218,0.0,0.0,95,0.00,,CLR,0.00,VWS V14.01,2013-03-18 11:40:00,
2013-03-18 04:50:00,45.5,44.2,29.65,SW,218,0.0,0.0,95,0.00,,,0.00,VWS V14.01,2013-03-18 11:50:00,
2013-03-18 05:00:00,45.3,44.0,29.65,SW,218,0.0,0.0,95,0.00,,,0.00,VWS V14.01,2013-03-18 12:00:00,
2013-03-18 05:10:00,45.3,44.0,29.65,SW,218,0.0,0.0,95,0.00,,,0.00,VWS V14.01,2013-03-18 12:10:00,
2013-03-18 05:20:00,45.3,44.0,29.65,SW,218,0.0,0.0,95,0.00,,,0.00,VWS V14.01,2013-03-18 12:20:00,
2013-03-18 05:30:00,45.1,43.8,29.65,SW,218,0.0,0.0,95,0.00,,,0.00,VWS V14.01,2013-03-18 12:30:00,
2013-03-18 05:40:00,45.1,43.8,29.65,SW,218,0.0,0.0,95,0.00,,,0.00,VWS V14.01,2013-03-18 12:40:00,
2013-03-18 05:50:00,44.8,43.4,29.65,SW,218,0.0,0.0,95,0.00,,,0.00,VWS V14.01,2013-03-18 12:50:00,
2013-03-18 06:00:00,44.8,43.4,29.65,South,176,0.0,0.0,95,0.00,,,0.00,VWS V14.01,2013-03-18 13:00:00,
2013-03-18 06:10:00,45.5,44.4,29.65,SSE,165,0.0,0.0,96,0.00,,,0.00,VWS V14.01,2013-03-18 13:10:00,
2013-03-18 06:20:00,45.3,44.2,29.65,SSE,165,0.0,0.0,96,0.00,,CLR,0.00,VWS V14.01,2013-03-18 13:20:00,
2013-03-18 06:30:00,44.6,43.3,29.65,SSE,165,0.0,0.0,95,0.00,,CLR,0.00,VWS V14.01,2013-03-18 13:30:00,
2013-03-18 06:40:00,44.4,43.3,29.65,SSE,165,0.0,0.0,96,0.00,,CLR,0.00,VWS V14.01,2013-03-18 13:40:00,
2013-03-18 06:50:00,43.9,42.8,29.65,SSE,165,0.0,0.0,96,0.00,,CLR,0.00,VWS V14.01,2013-03-18 13:50:00,
2013-03-18 07:00:00,43.9,42.8,29.65,SSE,165,0.0,0.0,96,0.00,,CLR,0.00,VWS V14.01,2013-03-18 14:00:00,
2013-03-18 07:10:00,43.0,41.7,29.65,SSE,165,0.0,0.0,95,0.00,,CLR,0.00,VWS V14.01,2013-03-18 14:10:00,
2013-03-18 07:20:00,42.6,41.6,29.65,SSE,165,0.0,0.0,96,0.00,,CLR,0.00,VWS V14.01,2013-03-18 14:20:00,
2013-03-18 07:30:00,43.0,41.9,29.65,SSE,165,0.0,0.0,96,0.00,,CLR,0.00,VWS V14.01,2013-03-18 14:30:00,
2013-03-18 07:40:00,43.0,41.9,29.68,SSE,165,0.0,0.0,96,0.00,,CLR,0.00,VWS V14.01,2013-03-18 14:40:00,
2013-03-18 07:50:00,45.5,44.7,29.68,SSE,165,0.0,0.0,97,0.00,,,0.00,VWS V14.01,2013-03-18 14:50:00,
2013-03-18 08:00:00,45.5,44.7,29.68,SSE,165,0.0,0.0,97,0.00,,,0.00,VWS V14.01,2013-03-18 15:00:00,
2013-03-18 08:10:00,46.0,45.2,29.68,SSW,196,0.0,0.0,97,0.00,,,0.00,VWS V14.01,2013-03-18 15:10:00,
2013-03-18 08:20:00,45.3,44.2,29.68,SSW,196,0.0,0.0,96,0.00,,FEW200,0.00,VWS V14.01,2013-03-18 15:20:00,
2013-03-18 08:30:00,46.2,45.4,29.68,SSW,196,0.0,0.0,97,0.00,,,0.00,VWS V14.01,2013-03-18 15:30:00,
2013-03-18 08:40:00,46.9,45.9,29.68,SSW,196,0.0,0.0,96,0.00,,,0.00,VWS V14.01,2013-03-18 15:40:00,
2013-03-18 08:50:00,48.7,47.7,29.68,SSW,196,0.0,0.0,96,0.00,,BKN250,0.00,VWS V14.01,2013-03-18 15:50:00,
2013-03-18 09:00:00,50.4,48.1,29.68,SW,236,0.0,0.0,92,0.00,,BKN250,0.00,VWS V14.01,2013-03-18 16:00:00,
2013-03-18 09:10:00,51.6,48.8,29.68,WSW,239,0.0,0.0,90,0.00,,BKN250,0.00,VWS V14.01,2013-03-18 16:10:00,
2013-03-18 09:20:00,52.3,48.0,29.71,SW,233,0.0,0.0,85,0.00,,BKN250,0.00,VWS V14.01,2013-03-18 16:20:00,
2013-03-18 09:30:00,52.3,47.0,29.68,SW,222,0.0,0.0,82,0.00,,BKN250,0.00,VWS V14.01,2013-03-18 16:30:00,
2013-03-18 09:40:00,52.3,47.0,29.68,SW,219,0.0,0.0,82,0.00,,BKN250,0.00,VWS V14.01,2013-03-18 16:40:00,
2013-03-18 09:50:00,53.1,45.7,29.68,SSW,208,0.0,0.0,76,0.00,,BKN250,0.00,VWS V14.01,2013-03-18 16:50:00,
2013-03-18 10:00:00,53.4,45.7,29.71,SSW,213,2.7,2.7,75,0.00,,BKN250,0.00,VWS V14.01,2013-03-18 17:00:00,
2013-03-18 10:10:00,53.8,44.6,29.71,SW,224,0.0,2.7,71,0.00,,BKN250,0.00,VWS V14.01,2013-03-18 17:10:00,
2013-03-18 10:20:00,53.8,44.6,29.71,SW,227,0.0,0.0,71,0.00,,BKN250,0.00,VWS V14.01,2013-03-18 17:20:00,
2013-03-18 10:30:00,54.7,45.1,29.71,SW,230,0.0,3.6,70,0.00,,BKN250,0.00,VWS V14.01,2013-03-18 17:30:00,
2013-03-18 10:40:00,56.5,46.1,29.71,West,270,2.2,2.7,68,0.00,,BKN250,0.00,VWS V14.01,2013-03-18 17:40:00,
2013-03-18 10:50:00,57.2,46.0,29.71,West,274,0.0,2.7,66,0.00,,BKN250,0.00,VWS V14.01,2013-03-18 17:50:00,
2013-03-18 11:00:00,57.2,46.0,29.71,NW,306,0.0,2.7,66,0.00,,BKN250,0.00,VWS V14.01,2013-03-18 18:00:00,
2013-03-18 11:10:00,58.3,47.0,29.68,NE,37,3.1,3.6,66,0.00,,BKN250,0.00,VWS V14.01,2013-03-18 18:10:00,
2013-03-18 11:20:00,60.1,43.4,29.71,NE,55,0.0,3.1,54,0.00,,BKN250,0.00,VWS V14.01,2013-03-18 18:20:00,
2013-03-18 11:30:00,60.3,42.6,29.71,ENE,58,2.2,4.0,52,0.00,,BKN250,0.00,VWS V14.01,2013-03-18 18:30:00,
2013-03-18 11:40:00,61.0,44.2,29.71,North,7,0.0,3.6,54,0.00,,BKN250,0.00,VWS V14.01,2013-03-18 18:40:00,
2013-03-18 11:50:00,62.2,43.4,29.71,NE,46,0.0,2.7,50,0.00,,BKN250,0.00,VWS V14.01,2013-03-18 18:50:00,
2013-03-18 12:00:00,61.7,42.9,29.68,NE,34,0.0,2.7,50,0.00,,BKN250,0.00,VWS V14.01,2013-03-18 19:00:00,
2013-03-18 12:10:00,62.1,44.2,29.68,NNW,334,3.1,4.0,52,0.00,,BKN250,0.00,VWS V14.01,2013-03-18 19:10:00,
2013-03-18 12:20:00,63.1,45.2,29.68,North,11,2.7,3.1,52,0.00,,BKN250,0.00,VWS V14.01,2013-03-18 19:20:00,
2013-03-18 12:30:00,63.7,44.2,29.68,NNW,331,3.1,4.0,49,0.00,,BKN250,0.00,VWS V14.01,2013-03-18 19:30:00,
2013-03-18 12:40:00,63.9,44.9,29.68,SW,218,0.0,3.1,50,0.00,,BKN250,0.00,VWS V14.01,2013-03-18 19:40:00,
2013-03-18 12:50:00,64.2,46.2,29.68,NE,45,0.0,2.2,52,0.00,,BKN250,0.00,VWS V14.01,2013-03-18 19:50:00,
2013-03-18 13:00:00,65.3,46.2,29.68,West,272,3.1,3.1,50,0.00,,BKN250,0.00,VWS V14.01,2013-03-18 20:00:00,
2013-03-18 13:10:00,65.7,44.9,29.68,WNW,295,3.1,3.6,47,0.00,,BKN250,0.00,VWS V14.01,2013-03-18 20:10:00,
2013-03-18 13:20:00,66.0,46.3,29.68,WSW,250,3.6,3.6,49,0.00,,BKN250,0.00,VWS V14.01,2013-03-18 20:20:00,
2013-03-18 13:30:00,66.0,45.8,29.68,WSW,250,0.0,4.0,48,0.00,,BKN250,0.00,VWS V14.01,2013-03-18 20:30:00,
2013-03-18 13:40:00,66.6,45.2,29.68,WNW,283,0.0,3.6,46,0.00,,BKN250,0.00,VWS V14.01,2013-03-18 20:40:00,
2013-03-18 13:50:00,66.9,45.5,29.65,North,9,0.0,3.1,46,0.00,,BKN250,0.00,VWS V14.01,2013-03-18 20:50:00,
2013-03-18 14:00:00,66.7,45.9,29.65,NW,315,0.0,3.6,47,0.00,,BKN250,0.00,VWS V14.01,2013-03-18 21:00:00,
2013-03-18 14:10:00,67.1,46.8,29.65,NE,46,0.0,2.7,48,0.00,,BKN250,0.00,VWS V14.01,2013-03-18 21:10:00,
2013-03-18 14:20:00,67.8,47.4,29.65,North,11,0.0,0.0,48,0.00,,BKN250,0.00,VWS V14.01,2013-03-18 21:20:00,
2013-03-18 14:30:00,67.6,47.8,29.65,NNE,17,0.0,2.2,49,0.00,,BKN250,0.00,VWS V14.01,2013-03-18 21:30:00,
2013-03-18 14:40:00,67.3,48.0,29.65,NNE,13,0.0,0.0,50,0.00,,BKN250,0.00,VWS V14.01,2013-03-18 21:40:00,
2013-03-18 14:50:00,66.7,47.5,29.65,ESE,116,0.0,0.0,50,0.00,,OVC250,0.00,VWS V14.01,2013-03-18 21:50:00,
2013-03-18 15:00:00,65.7,46.5,29.65,NW,305,0.0,0.0,50,0.00,,OVC250,0.00,VWS V14.01,2013-03-18 22:00:00,
2013-03-18 15:10:00,65.3,45.7,29.65,North,353,0.0,0.0,49,0.00,,OVC250,0.00,VWS V14.01,2013-03-18 22:10:00,
2013-03-18 15:20:00,64.4,44.8,29.65,North,8,0.0,0.0,49,0.00,,OVC250,0.00,VWS V14.01,2013-03-18 22:20:00,
2013-03-18 15:30:00,64.0,44.0,29.65,SW,222,0.0,0.0,48,0.00,,OVC250,0.00,VWS V14.01,2013-03-18 22:30:00,
2013-03-18 15:40:00,63.7,44.7,29.62,SW,218,0.0,0.0,50,0.00,,OVC250,0.00,VWS V14.01,2013-03-18 22:40:00,
2013-03-18 15:50:00,63.5,46.1,29.62,SSW,204,0.0,0.0,53,0.00,,BKN250,0.00,VWS V14.01,2013-03-18 22:50:00,
2013-03-18 16:00:00,63.1,45.2,29.62,North,9,0.0,0.0,52,0.00,,BKN250,0.00,VWS V14.01,2013-03-18 23:00:00,
2013-03-18 16:10:00,63.5,45.1,29.62,NNE,13,0.0,0.0,51,0.00,,BKN250,0.00,VWS V14.01,2013-03-18 23:10:00,
2013-03-18 16:20:00,63.7,43.6,29.62,NE,42,0.0,0.0,48,0.00,,BKN250,0.00,VWS V14.01,2013-03-18 23:20:00,
2013-03-18 16:30:00,63.3,43.8,29.62,NNE,14,0.0,0.0,49,0.00,,BKN250,0.00,VWS V14.01,2013-03-18 23:30:00,
2013-03-18 16:40:00,63.5,43.5,29.62,North,4,0.0,0.0,48,0.00,,BKN250,0.00,VWS V14.01,2013-03-18 23:40:00,
2013-03-18 16:50:00,63.5,43.5,29.62,East,81,0.0,0.0,48,0.00,,OVC250,0.00,VWS V14.01,2013-03-18 23:50:00,
2013-03-18 17:00:00,63.7,44.2,29.62,NNE,12,0.0,0.0,49,0.00,,OVC250,0.00,VWS V14.01,2013-03-19 00:00:00,
2013-03-18 17:10:00,63.9,45.4,29.62,North,11,0.0,0.0,51,0.00,,OVC250,0.00,VWS V14.01,2013-03-19 00:10:00,
2013-03-18 17:20:00,64.0,45.6,29.62,North,8,0.0,0.0,51,0.00,,CLR,0.00,VWS V14.01,2013-03-19 00:20:00,
2013-03-18 17:30:00,63.9,45.4,29.62,North,8,0.0,0.0,51,0.00,,CLR,0.00,VWS V14.01,2013-03-19 00:30:00,
2013-03-18 17:40:00,63.7,45.8,29.62,North,0,0.0,0.0,52,0.00,,CLR,0.00,VWS V14.01,2013-03-19 00:40:00,
2013-03-18 17:50:00,63.7,45.8,29.62,North,0,0.0,0.0,52,0.00,,CLR,0.00,VWS V14.01,2013-03-19 00:50:00,
2013-03-18 18:00:00,63.9,45.4,29.62,NE,35,0.0,0.0,51,0.00,,CLR,0.00,VWS V14.01,2013-03-19 01:00:00,
2013-03-18 18:10:00,63.1,46.2,29.62,NNE,33,0.0,0.0,54,0.00,,CLR,0.00,VWS V14.01,2013-03-19 01:10:00,
2013-03-18 18:20:00,62.2,46.8,29.62,NE,48,0.0,0.0,57,0.00,,CLR,0.00,VWS V14.01,2013-03-19 01:20:00,
2013-03-18 18:30:00,61.3,46.9,29.62,East,92,0.0,0.0,59,0.00,,CLR,0.00,VWS V14.01,2013-03-19 01:30:00,
2013-03-18 18:40:00,60.6,47.1,29.62,SW,232,0.0,0.0,61,0.00,,CLR,0.00,VWS V14.01,2013-03-19 01:40:00,
2013-03-18 18:50:00,59.9,46.9,29.62,East,87,0.0,0.0,62,0.00,,OVC250,0.00,VWS V14.01,2013-03-19 01:50:00,
2013-03-18 19:00:00,59.4,48.0,29.62,East,87,0.0,0.0,66,0.00,,OVC250,0.00,VWS V14.01,2013-03-19 02:00:00,
2013-03-18 19:10:00,58.6,48.1,29.62,East,87,0.0,0.0,68,0.00,,OVC250,0.00,VWS V14.01,2013-03-19 02:10:00,
2013-03-18 19:20:00,58.3,48.2,29.62,ENE,76,0.0,0.0,69,0.00,,OVC250,0.00,VWS V14.01,2013-03-19 02:20:00,
2013-03-18 19:30:00,57.6,47.9,29.62,ENE,75,0.0,0.0,70,0.00,,OVC250,0.00,VWS V14.01,2013-03-19 02:30:00,
2013-03-18 19:40:00,57.4,47.3,29.62,East,95,0.0,0.0,69,0.00,,OVC250,0.00,VWS V14.01,2013-03-19 02:40:00,
2013-03-18 19:50:00,56.7,47.4,29.62,ENE,76,0.0,2.7,71,0.00,,OVC250,0.00,VWS V14.01,2013-03-19 02:50:00,
2013-03-18 20:00:00,55.9,47.4,29.62,ENE,74,0.0,0.0,73,0.00,,OVC250,0.00,VWS V14.01,2013-03-19 03:00:00,
2013-03-18 20:10:00,55.4,47.3,29.65,East,100,0.0,0.0,74,0.00,,OVC250,0.00,VWS V14.01,2013-03-19 03:10:00,
2013-03-18 20:20:00,54.5,46.4,29.65,NE,49,0.0,0.0,74,0.00,,OVC250,0.00,VWS V14.01,2013-03-19 03:20:00,
2013-03-18 20:30:00,54.3,46.6,29.65,SW,234,0.0,0.0,75,0.00,,OVC250,0.00,VWS V14.01,2013-03-19 03:30:00,
2013-03-18 20:40:00,54.1,46.4,29.65,West,275,0.0,2.7,75,0.00,,OVC250,0.00,VWS V14.01,2013-03-19 03:40:00,
2013-03-18 20:50:00,53.6,46.2,29.65,WSW,257,0.0,0.0,76,0.00,,FEW120,0.00,VWS V14.01,2013-03-19 03:50:00,
2013-03-18 21:00:00,53.1,46.4,29.65,West,274,0.0,0.0,78,0.00,,FEW120,0.00,VWS V14.01,2013-03-19 04:00:00,
2013-03-18 21:10:00,52.9,46.9,29.68,WNW,293,0.0,0.0,80,0.00,,FEW120,0.00,VWS V14.01,2013-03-19 04:10:00,
2013-03-18 21:20:00,53.1,47.4,29.68,WNW,293,0.0,0.0,81,0.00,,FEW120,0.00,VWS V14.01,2013-03-19 04:20:00,
2013-03-18 21:30:00,53.6,47.9,29.68,WNW,293,0.0,0.0,81,0.00,,FEW120,0.00,VWS V14.01,2013-03-19 04:30:00,
2013-03-18 21:40:00,53.8,47.4,29.68,WNW,293,0.0,0.0,79,0.00,,FEW120,0.00,VWS V14.01,2013-03-19 04:40:00,
2013-03-18 21:50:00,53.8,47.4,29.68,WNW,293,0.0,0.0,79,0.00,,BKN110,0.00,VWS V14.01,2013-03-19 04:50:00,
2013-03-18 22:00:00,52.9,46.9,29.68,SSW,208,2.2,2.2,80,0.00,,BKN110,0.00,VWS V14.01,2013-03-19 05:00:00,
2013-03-18 22:10:00,52.5,46.9,29.68,SSW,208,0.0,2.2,81,0.00,,BKN110,0.00,VWS V14.01,2013-03-19 05:10:00,
2013-03-18 22:20:00,52.0,46.7,29.71,SSW,211,0.0,0.0,82,0.00,,BKN110,0.00,VWS V14.01,2013-03-19 05:20:00,
2013-03-18 22:30:00,52.2,47.5,29.71,SSW,204,0.0,0.0,84,0.00,,BKN110,0.00,VWS V14.01,2013-03-19 05:30:00,
2013-03-18 22:40:00,52.2,47.5,29.71,SSW,204,0.0,0.0,84,0.00,,BKN110,0.00,VWS V14.01,2013-03-19 05:40:00,
2013-03-18 22:50:00,51.8,47.4,29.71,SSW,204,0.0,0.0,85,0.00,,OVC100,0.00,VWS V14.01,2013-03-19 05:50:00,
2013-03-18 23:00:00,51.3,47.2,29.71,SSW,204,0.0,0.0,86,0.00,,OVC100,0.00,VWS V14.01,2013-03-19 06:00:00,
2013-03-18 23:10:00,51.3,47.2,29.71,SSW,204,0.0,0.0,86,0.00,,OVC100,0.00,VWS V14.01,2013-03-19 06:10:00,
2013-03-18 23:20:00,51.1,47.0,29.71,SSW,204,0.0,0.0,86,0.00,,OVC100,0.00,VWS V14.01,2013-03-19 06:20:00,
2013-03-18 23:30:00,50.5,46.8,29.68,SSW,204,0.0,0.0,87,0.00,,OVC100,0.00,VWS V14.01,2013-03-19 06:30:00,
2013-03-18 23:40:00,50.4,46.6,29.68,SSW,204,0.0,0.0,87,0.00,,OVC100,0.00,VWS V14.01,2013-03-19 06:40:00,
2013-03-18 23:50:00,50.4,47.0,29.68,SSW,204,0.0,0.0,88,0.00,,OVC085,0.00,VWS V14.01,2013-03-19 06:50:00,